Terminal Aerodrome Forecast
Issued by NWS Milwaukee/Sullivan, WI

Home | Current Version | Previous Version | Text Only | Print | Product List | Glossary On
Versions: 1 2 3 4 5 6 7 8 9 10 11 12 13 14 15 16 17 18 19 20 21 22 23 24 25 26 27 28 29 30 31 32 33 34 35
000
FTUS43 KMKX 210001 RRA
TAFMSN
TAF
KMSN 210001Z 2100/2124 00000KT P6SM BKN200
     FM210900 00000KT 4SM BR SCT150
     FM211300 14005KT P6SM SCT035 BKN140
     FM211600 14006KT P6SM SCT035 BKN120
     FM211800 15007KT P6SM SCT035 BKN100
     FM212100 14008KT P6SM SHRA VCTS SCT035CB BKN090=

USA.gov is the U.S. government's official web portal to all federal, state and local government web resources and services.